sensor_id;sensor_type;location;lat;lon;timestamp;P1;durP1;ratioP1;P2;durP2;ratioP2
48859;SDS011;34679;51.436;-2.518;2023-05-10T00:01:47;67.15;;;26.05;;
48859;SDS011;34679;51.436;-2.518;2023-05-10T00:04:12;76.35;;;26.63;;
48859;SDS011;34679;51.436;-2.518;2023-05-10T00:06:38;68.40;;;27.75;;
48859;SDS011;34679;51.436;-2.518;2023-05-10T00:09:04;73.53;;;30.05;;
48859;SDS011;34679;51.436;-2.518;2023-05-10T00:11:30;78.72;;;29.02;;
48859;SDS011;34679;51.436;-2.518;2023-05-10T00:13:55;72.55;;;27.98;;
48859;SDS011;34679;51.436;-2.518;2023-05-10T00:16:21;81.20;;;31.85;;
48859;SDS011;34679;51.436;-2.518;2023-05-10T00:18:47;71.88;;;29.38;;
48859;SDS011;34679;51.436;-2.518;2023-05-10T00:21:12;82.00;;;30.63;;
48859;SDS011;34679;51.436;-2.518;2023-05-10T00:23:38;73.97;;;28.23;;
48859;SDS011;34679;51.436;-2.518;2023-05-10T00:26:04;76.10;;;30.60;;
48859;SDS011;34679;51.436;-2.518;2023-05-10T00:28:30;78.75;;;30.13;;
48859;SDS011;34679;51.436;-2.518;2023-05-10T00:30:56;76.38;;;29.90;;
48859;SDS011;34679;51.436;-2.518;2023-05-10T00:33:22;77.80;;;29.15;;
48859;SDS011;34679;51.436;-2.518;2023-05-10T00:35:48;74.35;;;31.75;;
48859;SDS011;34679;51.436;-2.518;2023-05-10T00:38:13;76.57;;;31.65;;
48859;SDS011;34679;51.436;-2.518;2023-05-10T00:40:39;73.13;;;30.40;;
48859;SDS011;34679;51.436;-2.518;2023-05-10T00:43:05;67.15;;;30.08;;
48859;SDS011;34679;51.436;-2.518;2023-05-10T00:45:32;62.92;;;28.17;;
48859;SDS011;34679;51.436;-2.518;2023-05-10T00:48:02;62.50;;;29.52;;
48859;SDS011;34679;51.436;-2.518;2023-05-10T00:50:28;73.78;;;29.55;;
48859;SDS011;34679;51.436;-2.518;2023-05-10T00:52:55;68.82;;;27.90;;
48859;SDS011;34679;51.436;-2.518;2023-05-10T00:55:24;73.35;;;27.98;;
48859;SDS011;34679;51.436;-2.518;2023-05-10T00:57:49;65.57;;;29.08;;
48859;SDS011;34679;51.436;-2.518;2023-05-10T01:00:15;64.63;;;27.90;;
48859;SDS011;34679;51.436;-2.518;2023-05-10T01:02:44;63.05;;;29.55;;
48859;SDS011;34679;51.436;-2.518;2023-05-10T01:05:10;58.83;;;28.10;;
48859;SDS011;34679;51.436;-2.518;2023-05-10T01:07:37;57.83;;;28.90;;
48859;SDS011;34679;51.436;-2.518;2023-05-10T01:10:03;64.30;;;29.98;;
48859;SDS011;34679;51.436;-2.518;2023-05-10T01:12:29;58.13;;;27.92;;
48859;SDS011;34679;51.436;-2.518;2023-05-10T01:14:55;55.83;;;29.23;;
48859;SDS011;34679;51.436;-2.518;2023-05-10T01:17:21;63.88;;;28.70;;
48859;SDS011;34679;51.436;-2.518;2023-05-10T01:19:47;57.97;;;28.15;;
48859;SDS011;34679;51.436;-2.518;2023-05-10T01:33:24;63.13;;;29.23;;
48859;SDS011;34679;51.436;-2.518;2023-05-10T01:38:28;75.95;;;32.70;;
48859;SDS011;34679;51.436;-2.518;2023-05-10T01:41:08;69.05;;;32.38;;
48859;SDS011;34679;51.436;-2.518;2023-05-10T01:46:43;78.50;;;33.22;;
48859;SDS011;34679;51.436;-2.518;2023-05-10T01:49:26;70.97;;;32.08;;
48859;SDS011;34679;51.436;-2.518;2023-05-10T01:51:59;63.38;;;31.77;;
48859;SDS011;34679;51.436;-2.518;2023-05-10T01:54:31;59.72;;;29.55;;
48859;SDS011;34679;51.436;-2.518;2023-05-10T01:57:00;59.90;;;29.00;;
48859;SDS011;34679;51.436;-2.518;2023-05-10T01:59:29;68.28;;;31.02;;
48859;SDS011;34679;51.436;-2.518;2023-05-10T02:04:28;61.33;;;30.55;;
48859;SDS011;34679;51.436;-2.518;2023-05-10T02:06:54;63.80;;;27.77;;
48859;SDS011;34679;51.436;-2.518;2023-05-10T02:09:21;59.38;;;27.95;;
48859;SDS011;34679;51.436;-2.518;2023-05-10T02:11:48;63.03;;;27.50;;
48859;SDS011;34679;51.436;-2.518;2023-05-10T02:14:15;59.95;;;25.08;;
48859;SDS011;34679;51.436;-2.518;2023-05-10T02:16:42;52.45;;;24.17;;
48859;SDS011;34679;51.436;-2.518;2023-05-10T02:19:10;44.70;;;23.63;;
48859;SDS011;34679;51.436;-2.518;2023-05-10T02:21:37;52.97;;;24.20;;
48859;SDS011;34679;51.436;-2.518;2023-05-10T02:24:05;49.47;;;24.88;;
48859;SDS011;34679;51.436;-2.518;2023-05-10T02:26:33;49.53;;;23.33;;
48859;SDS011;34679;51.436;-2.518;2023-05-10T02:29:01;49.10;;;22.35;;
48859;SDS011;34679;51.436;-2.518;2023-05-10T02:31:30;45.67;;;23.15;;
48859;SDS011;34679;51.436;-2.518;2023-05-10T02:33:58;54.08;;;23.25;;
48859;SDS011;34679;51.436;-2.518;2023-05-10T02:36:26;43.65;;;22.38;;
48859;SDS011;34679;51.436;-2.518;2023-05-10T02:38:53;43.63;;;21.83;;
48859;SDS011;34679;51.436;-2.518;2023-05-10T02:41:20;52.00;;;23.80;;
48859;SDS011;34679;51.436;-2.518;2023-05-10T02:43:49;59.90;;;21.63;;
48859;SDS011;34679;51.436;-2.518;2023-05-10T02:46:18;53.25;;;21.10;;
48859;SDS011;34679;51.436;-2.518;2023-05-10T02:48:44;40.45;;;18.23;;
48859;SDS011;34679;51.436;-2.518;2023-05-10T02:51:10;45.42;;;20.38;;
48859;SDS011;34679;51.436;-2.518;2023-05-10T02:53:40;44.47;;;19.30;;
48859;SDS011;34679;51.436;-2.518;2023-05-10T02:56:20;52.65;;;20.27;;
48859;SDS011;34679;51.436;-2.518;2023-05-10T02:58:50;44.65;;;19.52;;
48859;SDS011;34679;51.436;-2.518;2023-05-10T03:01:17;55.13;;;21.40;;
48859;SDS011;34679;51.436;-2.518;2023-05-10T03:03:42;44.90;;;16.95;;
48859;SDS011;34679;51.436;-2.518;2023-05-10T03:06:08;44.00;;;18.83;;
48859;SDS011;34679;51.436;-2.518;2023-05-10T03:08:34;46.72;;;16.10;;
48859;SDS011;34679;51.436;-2.518;2023-05-10T03:16:46;60.47;;;17.10;;
48859;SDS011;34679;51.436;-2.518;2023-05-10T03:19:24;47.67;;;16.92;;
48859;SDS011;34679;51.436;-2.518;2023-05-10T03:21:55;53.55;;;15.35;;
48859;SDS011;34679;51.436;-2.518;2023-05-10T03:24:28;56.05;;;19.08;;
48859;SDS011;34679;51.436;-2.518;2023-05-10T03:26:55;48.88;;;14.82;;
48859;SDS011;34679;51.436;-2.518;2023-05-10T03:29:23;60.85;;;16.35;;
48859;SDS011;34679;51.436;-2.518;2023-05-10T03:31:51;48.72;;;16.77;;
48859;SDS011;34679;51.436;-2.518;2023-05-10T03:34:17;55.65;;;14.45;;
48859;SDS011;34679;51.436;-2.518;2023-05-10T03:36:49;41.47;;;14.38;;
48859;SDS011;34679;51.436;-2.518;2023-05-10T03:39:14;56.63;;;13.95;;
48859;SDS011;34679;51.436;-2.518;2023-05-10T03:41:40;59.63;;;15.75;;
48859;SDS011;34679;51.436;-2.518;2023-05-10T03:44:06;63.88;;;17.00;;
48859;SDS011;34679;51.436;-2.518;2023-05-10T03:46:32;55.22;;;16.65;;
48859;SDS011;34679;51.436;-2.518;2023-05-10T03:48:57;63.65;;;14.95;;
48859;SDS011;34679;51.436;-2.518;2023-05-10T03:51:23;68.43;;;16.20;;
48859;SDS011;34679;51.436;-2.518;2023-05-10T03:53:53;55.50;;;15.57;;
48859;SDS011;34679;51.436;-2.518;2023-05-10T03:56:19;51.08;;;15.15;;
48859;SDS011;34679;51.436;-2.518;2023-05-10T03:58:45;60.70;;;15.30;;
48859;SDS011;34679;51.436;-2.518;2023-05-10T04:01:11;51.72;;;14.18;;
48859;SDS011;34679;51.436;-2.518;2023-05-10T04:03:37;65.43;;;16.85;;
48859;SDS011;34679;51.436;-2.518;2023-05-10T04:06:03;62.90;;;15.80;;
48859;SDS011;34679;51.436;-2.518;2023-05-10T04:08:30;62.55;;;15.65;;
48859;SDS011;34679;51.436;-2.518;2023-05-10T04:11:08;58.78;;;14.35;;
48859;SDS011;34679;51.436;-2.518;2023-05-10T04:13:37;57.33;;;15.65;;
48859;SDS011;34679;51.436;-2.518;2023-05-10T04:16:03;62.55;;;13.80;;
48859;SDS011;34679;51.436;-2.518;2023-05-10T04:18:30;51.85;;;14.23;;
48859;SDS011;34679;51.436;-2.518;2023-05-10T04:20:56;55.70;;;15.35;;
48859;SDS011;34679;51.436;-2.518;2023-05-10T04:23:22;52.45;;;13.15;;
48859;SDS011;34679;51.436;-2.518;2023-05-10T04:25:48;65.88;;;14.35;;
48859;SDS011;34679;51.436;-2.518;2023-05-10T04:28:13;66.55;;;14.38;;
48859;SDS011;34679;51.436;-2.518;2023-05-10T04:30:39;61.83;;;14.52;;
48859;SDS011;34679;51.436;-2.518;2023-05-10T04:33:05;62.65;;;14.73;;
48859;SDS011;34679;51.436;-2.518;2023-05-10T04:35:31;56.28;;;14.40;;
48859;SDS011;34679;51.436;-2.518;2023-05-10T04:37:56;50.33;;;14.27;;
48859;SDS011;34679;51.436;-2.518;2023-05-10T04:40:22;69.75;;;16.02;;
48859;SDS011;34679;51.436;-2.518;2023-05-10T04:42:48;54.05;;;16.45;;
48859;SDS011;34679;51.436;-2.518;2023-05-10T04:45:13;78.93;;;18.48;;
48859;SDS011;34679;51.436;-2.518;2023-05-10T04:47:42;51.38;;;16.30;;
48859;SDS011;34679;51.436;-2.518;2023-05-10T04:50:08;55.28;;;16.70;;
48859;SDS011;34679;51.436;-2.518;2023-05-10T04:52:33;73.72;;;17.85;;
48859;SDS011;34679;51.436;-2.518;2023-05-10T04:54:59;62.10;;;18.02;;
48859;SDS011;34679;51.436;-2.518;2023-05-10T04:57:25;65.32;;;20.23;;
48859;SDS011;34679;51.436;-2.518;2023-05-10T04:59:51;54.97;;;17.30;;
48859;SDS011;34679;51.436;-2.518;2023-05-10T05:02:17;75.22;;;21.60;;
48859;SDS011;34679;51.436;-2.518;2023-05-10T05:04:42;55.33;;;19.17;;
48859;SDS011;34679;51.436;-2.518;2023-05-10T05:07:08;70.88;;;19.38;;
48859;SDS011;34679;51.436;-2.518;2023-05-10T05:09:33;51.20;;;18.38;;
48859;SDS011;34679;51.436;-2.518;2023-05-10T05:11:59;49.05;;;18.85;;
48859;SDS011;34679;51.436;-2.518;2023-05-10T05:14:25;52.75;;;18.10;;
48859;SDS011;34679;51.436;-2.518;2023-05-10T05:16:51;51.85;;;19.25;;
48859;SDS011;34679;51.436;-2.518;2023-05-10T05:19:17;45.92;;;16.30;;
48859;SDS011;34679;51.436;-2.518;2023-05-10T05:21:43;46.85;;;17.38;;
48859;SDS011;34679;51.436;-2.518;2023-05-10T05:24:09;49.05;;;17.25;;
48859;SDS011;34679;51.436;-2.518;2023-05-10T05:26:36;40.08;;;15.63;;
48859;SDS011;34679;51.436;-2.518;2023-05-10T05:29:01;48.53;;;15.45;;
48859;SDS011;34679;51.436;-2.518;2023-05-10T05:31:27;37.30;;;13.93;;
48859;SDS011;34679;51.436;-2.518;2023-05-10T05:33:53;28.50;;;12.73;;
48859;SDS011;34679;51.436;-2.518;2023-05-10T05:36:19;29.85;;;11.35;;
48859;SDS011;34679;51.436;-2.518;2023-05-10T05:38:45;34.72;;;13.18;;
48859;SDS011;34679;51.436;-2.518;2023-05-10T05:41:10;33.58;;;13.02;;
48859;SDS011;34679;51.436;-2.518;2023-05-10T05:43:36;33.22;;;12.68;;
48859;SDS011;34679;51.436;-2.518;2023-05-10T05:46:02;28.15;;;10.90;;
48859;SDS011;34679;51.436;-2.518;2023-05-10T05:48:29;39.90;;;11.63;;
48859;SDS011;34679;51.436;-2.518;2023-05-10T05:50:55;32.08;;;8.75;;
48859;SDS011;34679;51.436;-2.518;2023-05-10T05:53:22;31.02;;;6.95;;
48859;SDS011;34679;51.436;-2.518;2023-05-10T05:55:54;33.47;;;6.85;;
48859;SDS011;34679;51.436;-2.518;2023-05-10T05:58:22;24.35;;;5.90;;
48859;SDS011;34679;51.436;-2.518;2023-05-10T06:00:48;29.75;;;8.48;;
48859;SDS011;34679;51.436;-2.518;2023-05-10T06:03:15;23.92;;;6.93;;
48859;SDS011;34679;51.436;-2.518;2023-05-10T06:05:41;29.98;;;6.90;;
48859;SDS011;34679;51.436;-2.518;2023-05-10T06:08:06;27.33;;;6.50;;
48859;SDS011;34679;51.436;-2.518;2023-05-10T06:10:32;31.85;;;6.93;;
48859;SDS011;34679;51.436;-2.518;2023-05-10T06:12:58;23.77;;;5.78;;
48859;SDS011;34679;51.436;-2.518;2023-05-10T06:15:23;23.73;;;6.60;;
48859;SDS011;34679;51.436;-2.518;2023-05-10T06:17:49;30.50;;;5.30;;
48859;SDS011;34679;51.436;-2.518;2023-05-10T06:20:15;23.33;;;5.22;;
48859;SDS011;34679;51.436;-2.518;2023-05-10T06:22:41;20.42;;;4.70;;
48859;SDS011;34679;51.436;-2.518;2023-05-10T06:25:07;20.27;;;4.63;;
48859;SDS011;34679;51.436;-2.518;2023-05-10T06:27:33;26.42;;;4.97;;
48859;SDS011;34679;51.436;-2.518;2023-05-10T06:29:59;21.92;;;5.57;;
48859;SDS011;34679;51.436;-2.518;2023-05-10T06:32:25;22.58;;;4.72;;
48859;SDS011;34679;51.436;-2.518;2023-05-10T06:34:50;25.58;;;4.57;;
48859;SDS011;34679;51.436;-2.518;2023-05-10T06:37:17;18.27;;;4.40;;
48859;SDS011;34679;51.436;-2.518;2023-05-10T06:39:42;33.67;;;5.28;;
48859;SDS011;34679;51.436;-2.518;2023-05-10T06:42:08;18.42;;;4.55;;
48859;SDS011;34679;51.436;-2.518;2023-05-10T06:44:34;24.98;;;5.55;;
48859;SDS011;34679;51.436;-2.518;2023-05-10T06:46:59;22.60;;;4.32;;
48859;SDS011;34679;51.436;-2.518;2023-05-10T06:49:25;18.58;;;4.20;;
48859;SDS011;34679;51.436;-2.518;2023-05-10T06:51:51;23.42;;;4.35;;
48859;SDS011;34679;51.436;-2.518;2023-05-10T06:54:16;21.70;;;4.18;;
48859;SDS011;34679;51.436;-2.518;2023-05-10T06:56:42;24.95;;;3.95;;
48859;SDS011;34679;51.436;-2.518;2023-05-10T06:59:08;16.27;;;3.40;;
48859;SDS011;34679;51.436;-2.518;2023-05-10T07:01:34;22.02;;;3.85;;
48859;SDS011;34679;51.436;-2.518;2023-05-10T07:04:00;28.95;;;5.75;;
48859;SDS011;34679;51.436;-2.518;2023-05-10T07:06:25;24.45;;;5.35;;
48859;SDS011;34679;51.436;-2.518;2023-05-10T07:08:52;21.08;;;4.30;;
48859;SDS011;34679;51.436;-2.518;2023-05-10T07:11:18;18.27;;;3.72;;
48859;SDS011;34679;51.436;-2.518;2023-05-10T07:13:43;32.22;;;4.85;;
48859;SDS011;34679;51.436;-2.518;2023-05-10T07:16:11;17.58;;;3.85;;
48859;SDS011;34679;51.436;-2.518;2023-05-10T07:18:36;19.80;;;3.90;;
48859;SDS011;34679;51.436;-2.518;2023-05-10T07:21:02;24.95;;;3.83;;
48859;SDS011;34679;51.436;-2.518;2023-05-10T07:23:28;26.60;;;4.28;;
48859;SDS011;34679;51.436;-2.518;2023-05-10T07:25:55;29.50;;;4.50;;
48859;SDS011;34679;51.436;-2.518;2023-05-10T07:28:22;17.88;;;4.32;;
48859;SDS011;34679;51.436;-2.518;2023-05-10T07:30:49;25.02;;;3.78;;
48859;SDS011;34679;51.436;-2.518;2023-05-10T07:33:15;25.50;;;5.40;;
48859;SDS011;34679;51.436;-2.518;2023-05-10T07:35:41;18.35;;;4.28;;
48859;SDS011;34679;51.436;-2.518;2023-05-10T07:38:07;25.27;;;4.45;;
48859;SDS011;34679;51.436;-2.518;2023-05-10T07:40:33;18.55;;;3.42;;
48859;SDS011;34679;51.436;-2.518;2023-05-10T07:42:59;20.98;;;3.67;;
48859;SDS011;34679;51.436;-2.518;2023-05-10T07:45:26;25.75;;;3.65;;
48859;SDS011;34679;51.436;-2.518;2023-05-10T07:47:52;20.48;;;3.30;;
48859;SDS011;34679;51.436;-2.518;2023-05-10T07:50:18;28.58;;;4.70;;
48859;SDS011;34679;51.436;-2.518;2023-05-10T07:52:43;25.98;;;5.13;;
48859;SDS011;34679;51.436;-2.518;2023-05-10T07:55:09;21.20;;;5.07;;
48859;SDS011;34679;51.436;-2.518;2023-05-10T07:57:35;19.05;;;4.30;;
48859;SDS011;34679;51.436;-2.518;2023-05-10T08:00:01;22.23;;;4.00;;
48859;SDS011;34679;51.436;-2.518;2023-05-10T08:02:27;24.38;;;4.80;;
48859;SDS011;34679;51.436;-2.518;2023-05-10T08:04:54;29.27;;;4.68;;
48859;SDS011;34679;51.436;-2.518;2023-05-10T08:07:20;22.92;;;5.05;;
48859;SDS011;34679;51.436;-2.518;2023-05-10T08:09:46;26.70;;;6.10;;
48859;SDS011;34679;51.436;-2.518;2023-05-10T08:12:12;16.95;;;4.18;;
48859;SDS011;34679;51.436;-2.518;2023-05-10T08:14:38;17.95;;;4.72;;
48859;SDS011;34679;51.436;-2.518;2023-05-10T08:17:03;17.13;;;4.65;;
48859;SDS011;34679;51.436;-2.518;2023-05-10T08:19:29;18.35;;;4.15;;
48859;SDS011;34679;51.436;-2.518;2023-05-10T08:21:55;20.50;;;5.07;;
48859;SDS011;34679;51.436;-2.518;2023-05-10T08:24:21;21.45;;;4.22;;
48859;SDS011;34679;51.436;-2.518;2023-05-10T08:26:47;21.90;;;3.75;;
48859;SDS011;34679;51.436;-2.518;2023-05-10T08:29:13;22.13;;;4.35;;
48859;SDS011;34679;51.436;-2.518;2023-05-10T08:31:39;21.73;;;4.70;;
48859;SDS011;34679;51.436;-2.518;2023-05-10T08:34:05;28.02;;;6.47;;
48859;SDS011;34679;51.436;-2.518;2023-05-10T08:36:31;28.35;;;5.72;;
48859;SDS011;34679;51.436;-2.518;2023-05-10T08:38:57;29.83;;;5.53;;
48859;SDS011;34679;51.436;-2.518;2023-05-10T08:41:23;30.25;;;5.90;;
48859;SDS011;34679;51.436;-2.518;2023-05-10T08:43:50;31.98;;;5.60;;
48859;SDS011;34679;51.436;-2.518;2023-05-10T08:46:20;34.80;;;5.40;;
48859;SDS011;34679;51.436;-2.518;2023-05-10T08:48:48;29.90;;;6.10;;
48859;SDS011;34679;51.436;-2.518;2023-05-10T08:51:19;30.23;;;5.10;;
48859;SDS011;34679;51.436;-2.518;2023-05-10T08:53:47;32.65;;;6.03;;
48859;SDS011;34679;51.436;-2.518;2023-05-10T08:56:13;22.58;;;4.53;;
48859;SDS011;34679;51.436;-2.518;2023-05-10T08:58:40;25.95;;;5.28;;
48859;SDS011;34679;51.436;-2.518;2023-05-10T09:01:06;30.92;;;4.72;;
48859;SDS011;34679;51.436;-2.518;2023-05-10T09:03:33;29.23;;;5.88;;
48859;SDS011;34679;51.436;-2.518;2023-05-10T09:06:00;23.23;;;4.93;;
48859;SDS011;34679;51.436;-2.518;2023-05-10T09:08:25;32.08;;;5.90;;
48859;SDS011;34679;51.436;-2.518;2023-05-10T09:10:51;20.27;;;4.50;;
48859;SDS011;34679;51.436;-2.518;2023-05-10T09:13:18;24.83;;;5.28;;
48859;SDS011;34679;51.436;-2.518;2023-05-10T09:15:46;28.38;;;6.03;;
48859;SDS011;34679;51.436;-2.518;2023-05-10T09:18:13;25.80;;;6.60;;
48859;SDS011;34679;51.436;-2.518;2023-05-10T09:20:38;25.50;;;6.38;;
48859;SDS011;34679;51.436;-2.518;2023-05-10T09:23:05;24.80;;;6.18;;
48859;SDS011;34679;51.436;-2.518;2023-05-10T09:25:31;27.30;;;6.82;;
48859;SDS011;34679;51.436;-2.518;2023-05-10T09:27:59;22.67;;;6.15;;
48859;SDS011;34679;51.436;-2.518;2023-05-10T09:30:26;22.45;;;6.32;;
48859;SDS011;34679;51.436;-2.518;2023-05-10T09:32:59;33.72;;;7.40;;
48859;SDS011;34679;51.436;-2.518;2023-05-10T09:35:29;25.92;;;6.47;;
48859;SDS011;34679;51.436;-2.518;2023-05-10T09:37:57;22.17;;;5.97;;
48859;SDS011;34679;51.436;-2.518;2023-05-10T09:40:25;19.73;;;5.47;;
48859;SDS011;34679;51.436;-2.518;2023-05-10T09:42:54;21.27;;;4.57;;
48859;SDS011;34679;51.436;-2.518;2023-05-10T09:45:29;21.27;;;5.25;;
48859;SDS011;34679;51.436;-2.518;2023-05-10T09:47:55;26.17;;;4.80;;
48859;SDS011;34679;51.436;-2.518;2023-05-10T09:50:23;22.00;;;4.07;;
48859;SDS011;34679;51.436;-2.518;2023-05-10T09:52:50;26.50;;;4.55;;
48859;SDS011;34679;51.436;-2.518;2023-05-10T09:55:24;25.77;;;5.65;;
48859;SDS011;34679;51.436;-2.518;2023-05-10T09:57:58;19.77;;;3.72;;
48859;SDS011;34679;51.436;-2.518;2023-05-10T10:00:25;28.65;;;5.03;;
48859;SDS011;34679;51.436;-2.518;2023-05-10T10:02:58;24.05;;;4.35;;
48859;SDS011;34679;51.436;-2.518;2023-05-10T10:05:34;20.38;;;4.15;;
48859;SDS011;34679;51.436;-2.518;2023-05-10T10:08:02;15.73;;;3.13;;
48859;SDS011;34679;51.436;-2.518;2023-05-10T10:10:29;20.73;;;4.05;;
48859;SDS011;34679;51.436;-2.518;2023-05-10T10:12:56;18.13;;;3.42;;
48859;SDS011;34679;51.436;-2.518;2023-05-10T10:15:22;19.80;;;3.90;;
48859;SDS011;34679;51.436;-2.518;2023-05-10T10:17:49;11.13;;;2.92;;
48859;SDS011;34679;51.436;-2.518;2023-05-10T10:20:16;16.92;;;2.88;;
48859;SDS011;34679;51.436;-2.518;2023-05-10T10:22:43;12.40;;;3.33;;
48859;SDS011;34679;51.436;-2.518;2023-05-10T10:25:10;18.25;;;3.53;;
48859;SDS011;34679;51.436;-2.518;2023-05-10T10:30:23;12.85;;;2.80;;
48859;SDS011;34679;51.436;-2.518;2023-05-10T10:35:35;11.40;;;2.55;;
48859;SDS011;34679;51.436;-2.518;2023-05-10T10:38:01;15.50;;;2.53;;
48859;SDS011;34679;51.436;-2.518;2023-05-10T10:40:31;18.08;;;3.42;;
48859;SDS011;34679;51.436;-2.518;2023-05-10T10:42:58;21.63;;;3.47;;
48859;SDS011;34679;51.436;-2.518;2023-05-10T10:45:43;18.27;;;3.10;;
48859;SDS011;34679;51.436;-2.518;2023-05-10T10:48:22;24.15;;;3.60;;
48859;SDS011;34679;51.436;-2.518;2023-05-10T10:50:55;16.40;;;2.78;;
48859;SDS011;34679;51.436;-2.518;2023-05-10T10:53:22;15.68;;;3.13;;
48859;SDS011;34679;51.436;-2.518;2023-05-10T10:55:53;21.80;;;3.70;;
48859;SDS011;34679;51.436;-2.518;2023-05-10T10:58:33;17.08;;;3.22;;
48859;SDS011;34679;51.436;-2.518;2023-05-10T11:01:15;17.98;;;3.50;;
48859;SDS011;34679;51.436;-2.518;2023-05-10T11:03:54;19.67;;;3.72;;
48859;SDS011;34679;51.436;-2.518;2023-05-10T11:06:29;20.98;;;3.05;;
48859;SDS011;34679;51.436;-2.518;2023-05-10T11:08:59;16.10;;;4.10;;
48859;SDS011;34679;51.436;-2.518;2023-05-10T11:11:31;13.88;;;3.10;;
48859;SDS011;34679;51.436;-2.518;2023-05-10T11:14:02;22.00;;;3.72;;
48859;SDS011;34679;51.436;-2.518;2023-05-10T11:16:40;17.30;;;3.58;;
48859;SDS011;34679;51.436;-2.518;2023-05-10T11:19:12;19.25;;;3.20;;
48859;SDS011;34679;51.436;-2.518;2023-05-10T11:21:50;16.73;;;3.03;;
48859;SDS011;34679;51.436;-2.518;2023-05-10T11:24:31;15.68;;;2.88;;
48859;SDS011;34679;51.436;-2.518;2023-05-10T11:26:56;19.63;;;2.58;;
48859;SDS011;34679;51.436;-2.518;2023-05-10T11:29:22;14.00;;;3.15;;
48859;SDS011;34679;51.436;-2.518;2023-05-10T11:31:48;14.38;;;2.97;;
48859;SDS011;34679;51.436;-2.518;2023-05-10T11:36:58;18.50;;;3.90;;
48859;SDS011;34679;51.436;-2.518;2023-05-10T11:39:28;28.00;;;3.13;;
48859;SDS011;34679;51.436;-2.518;2023-05-10T11:41:55;17.30;;;2.60;;
48859;SDS011;34679;51.436;-2.518;2023-05-10T11:44:21;11.98;;;2.10;;
48859;SDS011;34679;51.436;-2.518;2023-05-10T11:46:48;17.85;;;2.65;;
48859;SDS011;34679;51.436;-2.518;2023-05-10T11:49:14;10.85;;;2.25;;
48859;SDS011;34679;51.436;-2.518;2023-05-10T11:51:40;11.70;;;2.17;;
48859;SDS011;34679;51.436;-2.518;2023-05-10T11:54:09;11.15;;;1.90;;
48859;SDS011;34679;51.436;-2.518;2023-05-10T11:56:36;12.77;;;2.40;;
48859;SDS011;34679;51.436;-2.518;2023-05-10T11:59:03;12.93;;;3.08;;
48859;SDS011;34679;51.436;-2.518;2023-05-10T12:01:29;21.13;;;2.40;;
48859;SDS011;34679;51.436;-2.518;2023-05-10T12:03:57;15.23;;;3.55;;
48859;SDS011;34679;51.436;-2.518;2023-05-10T12:06:28;11.43;;;2.22;;
48859;SDS011;34679;51.436;-2.518;2023-05-10T12:08:56;9.10;;;2.30;;
48859;SDS011;34679;51.436;-2.518;2023-05-10T12:11:25;8.15;;;2.00;;
48859;SDS011;34679;51.436;-2.518;2023-05-10T12:13:52;8.45;;;2.05;;
48859;SDS011;34679;51.436;-2.518;2023-05-10T12:16:19;9.90;;;2.10;;
48859;SDS011;34679;51.436;-2.518;2023-05-10T12:18:49;8.77;;;3.05;;
48859;SDS011;34679;51.436;-2.518;2023-05-10T12:21:22;9.30;;;1.67;;
48859;SDS011;34679;51.436;-2.518;2023-05-10T12:23:49;5.72;;;1.88;;
48859;SDS011;34679;51.436;-2.518;2023-05-10T12:26:16;11.20;;;1.88;;
48859;SDS011;34679;51.436;-2.518;2023-05-10T12:28:41;11.60;;;2.45;;
48859;SDS011;34679;51.436;-2.518;2023-05-10T12:31:07;8.38;;;2.63;;
48859;SDS011;34679;51.436;-2.518;2023-05-10T12:33:37;4.35;;;1.10;;
48859;SDS011;34679;51.436;-2.518;2023-05-10T12:36:04;8.13;;;1.50;;
48859;SDS011;34679;51.436;-2.518;2023-05-10T12:38:34;9.63;;;2.53;;
48859;SDS011;34679;51.436;-2.518;2023-05-10T12:41:04;11.98;;;2.00;;
48859;SDS011;34679;51.436;-2.518;2023-05-10T12:43:32;10.70;;;2.53;;
48859;SDS011;34679;51.436;-2.518;2023-05-10T12:45:58;9.48;;;2.05;;
48859;SDS011;34679;51.436;-2.518;2023-05-10T12:48:40;12.13;;;2.55;;
48859;SDS011;34679;51.436;-2.518;2023-05-10T12:51:06;7.32;;;2.08;;
48859;SDS011;34679;51.436;-2.518;2023-05-10T12:53:41;6.80;;;1.70;;
48859;SDS011;34679;51.436;-2.518;2023-05-10T12:56:06;5.35;;;1.52;;
48859;SDS011;34679;51.436;-2.518;2023-05-10T12:58:32;8.38;;;1.20;;
48859;SDS011;34679;51.436;-2.518;2023-05-10T13:00:59;2.92;;;0.70;;
48859;SDS011;34679;51.436;-2.518;2023-05-10T13:03:25;6.05;;;0.80;;
48859;SDS011;34679;51.436;-2.518;2023-05-10T13:05:50;13.80;;;2.95;;
48859;SDS011;34679;51.436;-2.518;2023-05-10T13:08:16;9.93;;;1.65;;
48859;SDS011;34679;51.436;-2.518;2023-05-10T13:10:42;15.55;;;1.98;;
48859;SDS011;34679;51.436;-2.518;2023-05-10T13:13:07;14.48;;;2.00;;
48859;SDS011;34679;51.436;-2.518;2023-05-10T13:15:33;15.88;;;1.85;;
48859;SDS011;34679;51.436;-2.518;2023-05-10T13:17:59;19.45;;;3.42;;
48859;SDS011;34679;51.436;-2.518;2023-05-10T13:20:25;12.50;;;2.50;;
48859;SDS011;34679;51.436;-2.518;2023-05-10T13:22:52;9.68;;;2.55;;
48859;SDS011;34679;51.436;-2.518;2023-05-10T13:25:18;16.70;;;4.20;;
48859;SDS011;34679;51.436;-2.518;2023-05-10T13:27:43;13.27;;;2.70;;
48859;SDS011;34679;51.436;-2.518;2023-05-10T13:30:09;10.52;;;2.15;;
48859;SDS011;34679;51.436;-2.518;2023-05-10T13:32:36;9.85;;;1.58;;
48859;SDS011;34679;51.436;-2.518;2023-05-10T13:35:02;8.80;;;1.55;;
48859;SDS011;34679;51.436;-2.518;2023-05-10T13:37:29;12.05;;;2.40;;
48859;SDS011;34679;51.436;-2.518;2023-05-10T13:39:55;17.83;;;3.20;;
48859;SDS011;34679;51.436;-2.518;2023-05-10T13:42:24;9.88;;;1.80;;
48859;SDS011;34679;51.436;-2.518;2023-05-10T13:44:50;7.10;;;1.33;;
48859;SDS011;34679;51.436;-2.518;2023-05-10T13:47:16;9.52;;;1.50;;
48859;SDS011;34679;51.436;-2.518;2023-05-10T13:49:41;9.20;;;1.50;;
48859;SDS011;34679;51.436;-2.518;2023-05-10T13:52:07;6.07;;;1.17;;
48859;SDS011;34679;51.436;-2.518;2023-05-10T13:54:35;9.45;;;1.30;;
48859;SDS011;34679;51.436;-2.518;2023-05-10T13:57:01;2.78;;;0.80;;
48859;SDS011;34679;51.436;-2.518;2023-05-10T13:59:28;8.10;;;1.15;;
48859;SDS011;34679;51.436;-2.518;2023-05-10T14:01:56;5.28;;;1.00;;
48859;SDS011;34679;51.436;-2.518;2023-05-10T14:04:22;4.15;;;0.88;;
48859;SDS011;34679;51.436;-2.518;2023-05-10T14:06:48;4.55;;;0.95;;
48859;SDS011;34679;51.436;-2.518;2023-05-10T14:09:13;3.85;;;0.60;;
48859;SDS011;34679;51.436;-2.518;2023-05-10T14:11:39;6.72;;;0.75;;
48859;SDS011;34679;51.436;-2.518;2023-05-10T14:14:08;4.15;;;0.70;;
48859;SDS011;34679;51.436;-2.518;2023-05-10T14:16:34;5.13;;;1.00;;
48859;SDS011;34679;51.436;-2.518;2023-05-10T14:19:00;7.70;;;1.02;;
48859;SDS011;34679;51.436;-2.518;2023-05-10T14:21:26;7.75;;;0.93;;
48859;SDS011;34679;51.436;-2.518;2023-05-10T14:23:53;5.18;;;0.90;;
48859;SDS011;34679;51.436;-2.518;2023-05-10T14:26:20;5.72;;;2.08;;
48859;SDS011;34679;51.436;-2.518;2023-05-10T14:28:46;8.85;;;1.48;;
48859;SDS011;34679;51.436;-2.518;2023-05-10T14:31:12;9.18;;;1.10;;
48859;SDS011;34679;51.436;-2.518;2023-05-10T14:33:39;3.65;;;0.90;;
48859;SDS011;34679;51.436;-2.518;2023-05-10T14:36:05;4.43;;;0.80;;
48859;SDS011;34679;51.436;-2.518;2023-05-10T14:38:31;6.18;;;1.02;;
48859;SDS011;34679;51.436;-2.518;2023-05-10T14:40:57;5.30;;;0.90;;
48859;SDS011;34679;51.436;-2.518;2023-05-10T14:43:23;4.90;;;0.80;;
48859;SDS011;34679;51.436;-2.518;2023-05-10T14:45:49;3.58;;;0.75;;
48859;SDS011;34679;51.436;-2.518;2023-05-10T14:48:14;5.32;;;0.90;;
48859;SDS011;34679;51.436;-2.518;2023-05-10T14:50:42;6.18;;;0.98;;
48859;SDS011;34679;51.436;-2.518;2023-05-10T14:53:08;12.85;;;1.73;;